Terminal Aerodrome Forecast
Issued by NWS Nashville, TN

Home | Current Version | Previous Version | Text Only | Print | Product List | Glossary On
Versions: 1 2 3 4 5 6 7 8 9 10 11 12 13 14 15 16 17 18 19 20 21 22 23
943
FTUS44 KOHX 010157 AAA
TAFCSV
TAF AMD
KCSV 010157Z 0102/0124 13004KT P6SM SCT050
     FM011100 18006KT 4SM -SHRA BR OVC007
     FM011500 20007KT P6SM VCSH SCT012 OVC030=

USA.gov is the U.S. government's official web portal to all federal, state and local government web resources and services.